메인 페이지
METAR-TAF:

METAR-TAF

공항 :

라르나카 국제공항

라르나카, 키프로스

위도: 34-53N, 경도: 033-38E, 고도: 2m

현재 날씨관측

예보는 37분 전, 15:30시(UTC)에 발표되었습니다.
11kt
온도 18°C
습도 73%
기압 1017 hPa
시정 10km 이상
고도 2500ft 상공 구름 조금, 타워링 적운.
고도 3300ft 상공 구름 보통

METAR: LCLK 181530Z 19011KT 9999 FEW025TCU SCT033 18/13 Q1017 NOSIG

시각: 18:07 (16:07 UTC)

예보

예보는 4 시간 37분 전, 11:30시(UTC)에 발표되었습니다.
예보 대상 시간: 18일 12시부터 19일 12시까지 (UTC)
남남서16kt
시정 10km 이상
고도 2500ft 상공 구름 조금
고도 4000ft 상공 구름 보통
확률 40% :
일시적
18일 18시부터 19일 12시까지 (UTC)
여러 방향의 바람 25kt, 순간 최대 풍속 40kt
시정: 2000m
고도 2000ft 상공 구름 많음, 적란운.
뇌우, 비

TAF: LCLK 181130Z 1812/1912 21016KT 9999 FEW025 SCT040 PROB40 TEMPO 1818/1912 VRB25G40KT 2000 TSRA BKN020CB

4,000개 이상의 공항 관측 자료 및 예보 (METAR 및 TAF 보고).

지도상에서 검색 가능한 기상관측소가 노란 점과 빨간 점으로 표시되어 있습니다.

기상관측소 명을 보려면 표시 위로 마우스를 이동하세요.

날씨 관측과 예보를 보려면 클릭하세요.

지도 변경 : 확대하려면 엑스 표시가 있는 녹색 버튼, 축소하려면 빼기 표시가 있는 녹색 버튼, 다음 페이지의 지도를 보려면 녹색 화살표를 클릭하세요.


METAR-TAF: